createdAt,value
2022-11-14T11:39:01.452Z,97.40
2022-11-14T11:42:06.257Z,97.30
2022-11-14T11:44:22.240Z,97.10
2022-11-14T11:46:59.376Z,96.80
2022-11-14T11:49:53.356Z,96.70
2022-11-14T11:52:59.008Z,96.40
2022-11-14T11:55:30.936Z,96.20
2022-11-14T11:58:19.342Z,96.10
2022-11-14T12:00:46.401Z,95.70
2022-11-14T12:03:20.184Z,95.60
2022-11-14T12:06:12.244Z,95.20
2022-11-14T12:09:14.217Z,94.70
2022-11-14T12:12:14.521Z,93.20
2022-11-14T12:14:59.443Z,92.40
2022-11-14T12:17:53.334Z,92.70
2022-11-14T12:20:26.239Z,92.40
2022-11-14T12:23:17.911Z,91.50
2022-11-14T12:25:47.538Z,92.20
2022-11-14T12:28:41.246Z,92.60
2022-11-14T12:31:14.283Z,92.20
2022-11-14T12:33:48.807Z,92.40
2022-11-14T12:36:15.948Z,91.90
2022-11-14T12:38:46.973Z,91.80
2022-11-14T12:41:25.883Z,91.10
2022-11-14T12:43:53.235Z,90.20
2022-11-14T12:46:20.213Z,90.40
2022-11-14T12:48:47.665Z,90.90
2022-11-14T12:51:27.018Z,90.90
2022-11-14T12:53:55.859Z,90.30
2022-11-14T12:56:33.859Z,90.50
2022-11-14T12:59:09.659Z,90.30
2022-11-14T13:01:37.088Z,90.50
2022-11-14T13:04:31.580Z,91.10
2022-11-14T13:07:28.621Z,90.90
2022-11-14T13:10:30.614Z,90.30
2022-11-14T13:13:20.897Z,90.90
2022-11-14T13:16:17.143Z,90.40
2022-11-14T13:19:30.490Z,88.40
2022-11-14T13:22:12.313Z,85.50
2022-11-14T13:25:04.109Z,85.90
2022-11-14T13:28:00.207Z,85.50
2022-11-14T13:30:40.197Z,87.00
2022-11-14T13:33:07.707Z,88.40
2022-11-14T13:36:00.707Z,89.70
2022-11-14T13:38:42.789Z,90.70
2022-11-14T13:41:48.335Z,91.10
2022-11-14T13:45:10.425Z,91.30
2022-11-14T13:47:55.944Z,91.20
2022-11-14T13:50:31.222Z,91.00
2022-11-14T13:52:59.325Z,90.50
2022-11-14T13:55:44.578Z,90.30
2022-11-14T13:58:17.383Z,90.40
2022-11-14T14:01:02.596Z,90.50
2022-11-14T14:03:54.372Z,90.50
2022-11-14T14:06:39.908Z,90.50
2022-11-14T14:09:34.458Z,90.80
2022-11-14T14:12:07.436Z,91.20
2022-11-14T14:14:52.682Z,92.00
2022-11-14T14:17:22.413Z,92.30
2022-11-14T14:19:59.695Z,92.40
2022-11-14T14:22:32.490Z,92.60
2022-11-14T14:25:13.791Z,92.90
2022-11-14T14:27:46.464Z,93.10
2022-11-14T14:30:16.892Z,92.90
2022-11-14T14:32:43.726Z,92.50
2022-11-14T14:35:48.837Z,91.90
2022-11-14T14:38:27.715Z,92.00
2022-11-14T14:40:56.503Z,93.00
2022-11-14T14:43:33.606Z,93.40
2022-11-14T14:46:01.639Z,93.80
2022-11-14T14:48:33.683Z,94.40
2022-11-14T14:51:03.183Z,94.40
2022-11-14T14:53:34.837Z,94.40
2022-11-14T14:56:14.064Z,95.10
2022-11-14T14:58:41.194Z,95.20
2022-11-14T15:01:17.170Z,95.00
2022-11-14T15:03:55.340Z,95.20
2022-11-14T15:06:30.940Z,95.20
2022-11-14T15:09:23.438Z,95.90
2022-11-14T15:11:56.698Z,96.30
2022-11-14T15:14:30.137Z,96.60
2022-11-14T15:16:58.099Z,96.90
2022-11-14T15:19:31.771Z,97.00
2022-11-14T15:22:19.617Z,97.20
2022-11-14T15:25:12.084Z,97.50
2022-11-14T15:27:47.768Z,97.70
2022-11-14T15:30:27.498Z,97.90
2022-11-14T15:32:57.078Z,98.10
2022-11-14T15:35:25.926Z,98.20
2022-11-14T15:38:41.990Z,98.40
2022-11-14T15:41:16.892Z,98.80
2022-11-14T15:43:43.790Z,98.80
2022-11-14T15:46:26.047Z,99.00
2022-11-14T15:48:53.029Z,99.20
2022-11-14T15:51:37.374Z,99.50
2022-11-14T15:54:04.529Z,99.80
2022-11-14T15:56:31.355Z,99.90
2022-11-14T15:58:58.413Z,99.90
2022-11-14T16:01:28.136Z,99.90
2022-11-14T16:03:55.166Z,99.90
2022-11-14T16:06:22.498Z,99.90
2022-11-14T16:08:49.235Z,99.90
2022-11-14T16:11:15.974Z,99.90
2022-11-14T16:13:42.740Z,99.90
2022-11-14T16:16:09.519Z,99.90
2022-11-14T16:18:36.296Z,99.90
2022-11-14T16:21:03.056Z,99.90
2022-11-14T16:23:30.020Z,99.90
2022-11-14T16:25:57.082Z,99.90
2022-11-14T16:28:23.800Z,99.90
2022-11-14T16:30:50.561Z,99.90
2022-11-14T16:33:18.521Z,99.90
2022-11-14T16:35:45.795Z,99.90
2022-11-14T16:38:13.614Z,99.90
2022-11-14T16:40:44.242Z,99.90
2022-11-14T16:43:14.307Z,99.90
2022-11-14T16:45:41.429Z,99.90
2022-11-14T16:48:08.231Z,99.90
2022-11-14T16:50:37.201Z,99.90
2022-11-14T16:53:03.880Z,99.90
2022-11-14T16:55:30.946Z,99.90
2022-11-14T16:57:57.708Z,99.90
2022-11-14T17:00:24.581Z,99.90
2022-11-14T17:02:51.390Z,99.90
2022-11-14T17:05:18.088Z,99.90
2022-11-14T17:07:45.189Z,99.90
2022-11-14T17:10:12.178Z,99.90
2022-11-14T17:12:38.859Z,99.90
2022-11-14T17:15:06.111Z,99.90
2022-11-14T17:17:32.835Z,99.90
2022-11-14T17:20:00.116Z,99.90
2022-11-14T17:22:26.844Z,99.90
2022-11-14T17:24:53.806Z,99.90
2022-11-14T17:27:20.639Z,99.90
2022-11-14T17:29:51.769Z,99.90
2022-11-14T17:32:18.456Z,99.90
2022-11-14T17:34:45.786Z,99.90
2022-11-14T17:37:12.454Z,99.90
2022-11-14T17:39:39.122Z,99.90
2022-11-14T17:42:07.281Z,99.90
2022-11-14T17:44:34.403Z,99.90
2022-11-14T17:47:01.271Z,99.90
2022-11-14T17:49:28.166Z,99.90
2022-11-14T17:51:55.103Z,99.90
2022-11-14T17:54:21.817Z,99.90
2022-11-14T17:56:53.690Z,99.90
2022-11-14T17:59:21.842Z,99.90
2022-11-14T18:01:48.744Z,99.90
2022-11-14T18:04:18.810Z,99.90
2022-11-14T18:06:53.675Z,99.90
2022-11-14T18:09:23.890Z,99.90
2022-11-14T18:11:51.645Z,99.90
2022-11-14T18:14:18.479Z,99.90
2022-11-14T18:17:11.239Z,99.90
2022-11-14T18:19:33.037Z,99.90
2022-11-14T18:22:01.818Z,99.90
2022-11-14T18:24:28.723Z,99.90
2022-11-14T18:26:57.029Z,99.90
2022-11-14T18:29:23.855Z,99.90
2022-11-14T18:31:50.925Z,99.90
2022-11-14T18:34:18.097Z,99.90
2022-11-14T18:36:44.954Z,99.90
2022-11-14T18:39:11.611Z,99.90
2022-11-14T18:41:38.289Z,99.90
2022-11-14T18:44:05.556Z,99.90
2022-11-14T18:46:37.175Z,99.90
2022-11-14T18:49:04.204Z,99.90
2022-11-14T18:51:30.932Z,99.90
2022-11-14T18:53:59.384Z,99.90
2022-11-14T18:56:26.524Z,99.90
2022-11-14T18:58:55.358Z,99.90
2022-11-14T19:01:26.284Z,99.90
2022-11-14T19:03:56.734Z,99.90
2022-11-14T19:06:23.921Z,99.90
2022-11-14T19:08:50.983Z,99.90
2022-11-14T19:11:37.227Z,99.90
2022-11-14T19:14:05.868Z,99.90
2022-11-14T19:16:34.812Z,99.90
2022-11-14T19:19:02.092Z,99.90
2022-11-14T19:21:29.269Z,99.90
2022-11-14T19:23:56.043Z,99.90
2022-11-14T19:26:23.362Z,99.90
2022-11-14T19:28:50.207Z,99.90
2022-11-14T19:31:17.780Z,99.90
2022-11-14T19:33:45.369Z,99.90
2022-11-14T19:36:32.361Z,99.90
2022-11-14T19:39:05.718Z,99.90
2022-11-14T19:41:32.558Z,99.90
2022-11-14T19:44:01.198Z,99.90
2022-11-14T19:46:30.814Z,99.90
2022-11-14T19:49:01.776Z,99.90
2022-11-14T19:51:29.569Z,99.90
2022-11-14T19:53:58.203Z,99.90
2022-11-14T19:56:25.646Z,99.90
2022-11-14T19:58:55.236Z,99.90
2022-11-14T20:01:27.237Z,99.90
2022-11-14T20:03:55.496Z,99.90
2022-11-14T20:06:26.120Z,99.90
2022-11-14T20:08:53.723Z,99.90
2022-11-14T20:11:20.930Z,99.90
2022-11-14T20:13:48.327Z,99.90
2022-11-14T20:16:20.109Z,99.90
2022-11-14T20:18:58.874Z,99.90
2022-11-14T20:21:27.380Z,99.90
2022-11-14T20:23:54.363Z,99.90
2022-11-14T20:26:22.101Z,99.90
2022-11-14T20:28:52.091Z,99.90
2022-11-14T20:31:24.051Z,99.90
2022-11-14T20:33:52.129Z,99.90
2022-11-14T20:36:21.500Z,99.90
2022-11-14T20:38:49.221Z,99.90
2022-11-14T20:41:17.002Z,99.90
2022-11-14T20:43:44.030Z,99.90
2022-11-14T20:46:16.875Z,99.90
2022-11-14T20:48:44.616Z,99.90
2022-11-14T20:51:15.129Z,99.90
2022-11-14T20:53:42.812Z,99.90
2022-11-14T20:56:10.946Z,99.90
2022-11-14T20:58:39.485Z,99.90
2022-11-14T21:01:06.629Z,99.90
2022-11-14T21:03:34.573Z,99.90
2022-11-14T21:06:02.105Z,99.90
2022-11-14T21:08:29.869Z,99.90
2022-11-14T21:11:05.210Z,99.90
2022-11-14T21:13:53.918Z,99.90
2022-11-14T21:16:21.351Z,99.90
2022-11-14T21:18:48.343Z,99.90
2022-11-14T21:21:20.297Z,99.90
2022-11-14T21:23:47.636Z,99.90
2022-11-14T21:26:23.254Z,99.90
2022-11-14T21:28:53.155Z,99.90
2022-11-14T21:31:32.186Z,99.90
2022-11-14T21:34:07.118Z,99.90
2022-11-14T21:36:44.903Z,99.90
2022-11-14T21:39:14.937Z,99.90
2022-11-14T21:41:42.704Z,99.90
2022-11-14T21:44:16.543Z,99.90
2022-11-14T21:46:46.390Z,99.90
2022-11-14T21:49:13.352Z,99.90
2022-11-14T21:51:40.197Z,99.90
2022-11-14T21:54:06.904Z,99.90
2022-11-14T21:56:35.871Z,99.90
2022-11-14T21:59:13.500Z,99.90
2022-11-14T22:02:04.902Z,99.90
2022-11-14T22:04:32.115Z,99.90
2022-11-14T22:07:01.363Z,99.90
2022-11-14T22:09:28.982Z,99.90
2022-11-14T22:11:56.492Z,99.90
2022-11-14T22:14:23.675Z,99.90
2022-11-14T22:16:50.427Z,99.90
2022-11-14T22:19:17.100Z,99.90
2022-11-14T22:21:43.770Z,99.90
2022-11-14T22:24:10.476Z,99.90
2022-11-14T22:26:40.056Z,99.90
2022-11-14T22:29:07.459Z,99.90
2022-11-14T22:31:34.516Z,99.90
2022-11-14T22:34:01.231Z,99.90
2022-11-14T22:36:28.223Z,99.90
2022-11-14T22:38:56.591Z,99.90
2022-11-14T22:41:32.373Z,99.90
2022-11-14T22:44:00.567Z,99.90
2022-11-14T22:46:27.954Z,99.90
2022-11-14T22:48:54.965Z,99.90
2022-11-14T22:51:33.067Z,99.90
2022-11-14T22:53:59.827Z,99.90
2022-11-14T22:56:29.033Z,99.90
2022-11-14T22:58:56.549Z,99.90
2022-11-14T23:01:25.958Z,99.90
2022-11-14T23:04:01.422Z,99.90
2022-11-14T23:06:29.406Z,99.90
2022-11-14T23:08:56.417Z,99.90
2022-11-14T23:11:26.289Z,99.90
2022-11-14T23:13:55.163Z,99.90
2022-11-14T23:16:25.022Z,99.90
2022-11-14T23:18:55.190Z,99.90
2022-11-14T23:21:25.195Z,99.90
2022-11-14T23:24:00.658Z,99.90
2022-11-14T23:26:28.717Z,99.90
2022-11-14T23:28:55.643Z,99.90
2022-11-14T23:31:22.859Z,99.90
2022-11-14T23:33:51.640Z,99.90
2022-11-14T23:36:18.310Z,99.90
2022-11-14T23:38:45.202Z,99.90
2022-11-14T23:41:20.551Z,99.90
2022-11-14T23:43:47.709Z,99.90
2022-11-14T23:46:15.232Z,99.90
2022-11-14T23:48:42.111Z,99.90
2022-11-14T23:51:09.723Z,99.90
2022-11-14T23:53:36.809Z,99.90
2022-11-14T23:56:03.649Z,99.90
2022-11-14T23:58:30.375Z,99.90
